Terminal Aerodrome Forecast
Issued by NWS

Home | Current Version | Previous Version | Text Only | Print | Product List | Glossary On
Versions: 1 2 3 4 5 6 7 8 9 10 11 12 13 14 15 16 17 18 19 20 21 22 23
483
FTUS43 KDVN 270405 AAB
TAFCID
TAF AMD
KCID 270405Z 2704/2724 VRB03KT 3SM BR SCT150
     FM270600 VRB03KT 2SM BR FEW003
      TEMPO 2709/2713 1SM BR BKN003
     FM271400 12006KT 6SM BR SCT040=

USA.gov is the U.S. government's official web portal to all federal, state and local government web resources and services.